createdAt,value
2018-04-14T00:02:11.634Z,99.90
2018-04-14T00:04:39.979Z,99.90
2018-04-14T00:07:08.274Z,99.90
2018-04-14T00:09:37.327Z,99.90
2018-04-14T00:12:05.734Z,99.90
2018-04-14T00:14:33.993Z,99.90
2018-04-14T00:17:02.281Z,99.90
2018-04-14T00:19:30.559Z,99.90
2018-04-14T00:21:58.853Z,99.90
2018-04-14T00:24:27.216Z,99.90
2018-04-14T00:26:55.603Z,99.90
2018-04-14T00:29:23.875Z,99.90
2018-04-14T00:31:52.173Z,99.90
2018-04-14T00:34:20.536Z,99.90
2018-04-14T00:36:48.833Z,99.90
2018-04-14T00:39:17.857Z,99.90
2018-04-14T00:41:46.183Z,99.90
2018-04-14T00:44:14.451Z,99.90
2018-04-14T00:46:42.839Z,99.90
2018-04-14T00:49:11.878Z,99.90
2018-04-14T00:51:40.211Z,99.90
2018-04-14T00:54:08.590Z,99.90
2018-04-14T00:56:36.859Z,99.90
2018-04-14T00:59:05.157Z,99.90
2018-04-14T01:01:33.523Z,99.90
2018-04-14T01:04:01.815Z,99.90
2018-04-14T01:06:30.091Z,99.90
2018-04-14T01:08:58.398Z,99.90
2018-04-14T01:11:26.725Z,99.90
2018-04-14T01:13:55.017Z,99.90
2018-04-14T01:16:23.294Z,99.90
2018-04-14T01:18:51.591Z,99.90
2018-04-14T01:21:20.672Z,99.90
2018-04-14T01:23:49.047Z,99.90
2018-04-14T01:26:17.422Z,99.90
2018-04-14T01:28:45.708Z,99.90
2018-04-14T01:31:13.986Z,99.90
2018-04-14T01:33:42.279Z,99.90
2018-04-14T01:36:10.547Z,99.90
2018-04-14T01:38:38.940Z,99.90
2018-04-14T01:41:07.235Z,99.90
2018-04-14T01:43:36.270Z,99.90
2018-04-14T01:46:04.643Z,99.90
2018-04-14T01:48:32.915Z,99.90
2018-04-14T01:51:01.215Z,99.90
2018-04-14T01:53:29.611Z,99.90
2018-04-14T01:55:57.911Z,99.90
2018-04-14T01:58:26.951Z,99.90
2018-04-14T02:00:55.260Z,99.90
2018-04-14T02:03:23.633Z,99.90
2018-04-14T02:05:51.940Z,99.90
2018-04-14T02:08:20.998Z,99.90
2018-04-14T02:10:49.308Z,99.90
2018-04-14T02:13:18.366Z,99.90
2018-04-14T02:15:46.663Z,99.90
2018-04-14T02:18:14.944Z,99.90
2018-04-14T02:20:44.747Z,99.90
2018-04-14T02:23:13.111Z,99.90
2018-04-14T02:25:41.425Z,99.90
2018-04-14T02:28:09.716Z,99.90
2018-04-14T02:30:38.094Z,99.90
2018-04-14T02:33:06.438Z,99.90
2018-04-14T02:35:34.702Z,99.90
2018-04-14T02:38:03.002Z,99.90
2018-04-14T02:40:31.276Z,99.90
2018-04-14T02:42:59.582Z,99.90
2018-04-14T02:45:27.864Z,99.90
2018-04-14T02:47:56.167Z,99.90
2018-04-14T02:50:25.252Z,99.90
2018-04-14T02:52:53.539Z,99.90
2018-04-14T02:55:22.578Z,99.90
2018-04-14T02:57:50.877Z,99.90
2018-04-14T03:00:19.137Z,99.90
2018-04-14T03:02:47.545Z,99.90
2018-04-14T03:05:15.820Z,99.90
2018-04-14T03:07:44.125Z,99.90
2018-04-14T03:10:13.174Z,99.90
2018-04-14T03:12:41.579Z,99.90
2018-04-14T03:15:09.837Z,99.90
2018-04-14T03:17:38.907Z,99.90
2018-04-14T03:20:07.183Z,99.90
2018-04-14T03:22:35.486Z,99.90
2018-04-14T03:25:03.755Z,99.90
2018-04-14T03:27:32.103Z,99.90
2018-04-14T03:30:00.371Z,99.90
2018-04-14T03:32:28.645Z,99.90
2018-04-14T03:34:56.938Z,99.90
2018-04-14T03:37:25.208Z,99.90
2018-04-14T03:39:53.507Z,99.90
2018-04-14T03:42:21.783Z,99.90
2018-04-14T03:44:50.158Z,99.90
2018-04-14T03:47:18.414Z,99.90
2018-04-14T03:49:46.739Z,99.90
2018-04-14T03:52:15.008Z,99.90
2018-04-14T03:54:43.366Z,99.90
2018-04-14T03:57:11.641Z,99.90
2018-04-14T03:59:39.936Z,99.90
2018-04-14T04:02:08.212Z,99.90
2018-04-14T04:04:36.575Z,99.90
2018-04-14T04:07:04.838Z,99.90
2018-04-14T04:09:33.134Z,99.90
2018-04-14T04:12:01.411Z,99.90
2018-04-14T04:14:29.715Z,99.90
2018-04-14T04:16:58.761Z,99.90
2018-04-14T04:19:38.899Z,99.90
2018-04-14T04:22:19.099Z,99.90
2018-04-14T04:24:59.370Z,99.90
2018-04-14T04:27:27.838Z,99.90
2018-04-14T04:29:56.136Z,99.90
2018-04-14T04:32:24.440Z,99.90
2018-04-14T04:34:52.715Z,99.90
2018-04-14T04:37:21.012Z,99.90
2018-04-14T04:39:49.292Z,99.90
2018-04-14T04:42:17.607Z,99.90
2018-04-14T04:44:45.868Z,99.90
2018-04-14T04:47:14.978Z,99.90
2018-04-14T04:49:43.248Z,99.90
2018-04-14T04:52:11.551Z,99.90
2018-04-14T04:54:39.827Z,99.90
2018-04-14T04:57:08.188Z,99.90
2018-04-14T04:59:36.450Z,99.90
2018-04-14T05:02:04.751Z,99.90
2018-04-14T05:04:33.027Z,99.90
2018-04-14T05:07:01.324Z,99.90
2018-04-14T05:09:30.392Z,99.90
2018-04-14T05:11:58.781Z,99.90
2018-04-14T05:14:27.066Z,99.90
2018-04-14T05:16:56.147Z,99.90
2018-04-14T05:19:24.418Z,99.90
2018-04-14T05:21:52.717Z,99.90
2018-04-14T05:24:20.998Z,99.90
2018-04-14T05:26:50.056Z,99.90
2018-04-14T05:29:18.374Z,99.90
2018-04-14T05:31:46.643Z,99.90
2018-04-14T05:34:15.012Z,99.90
2018-04-14T05:36:44.795Z,99.90
2018-04-14T05:39:13.205Z,99.90
2018-04-14T05:41:41.473Z,99.90
2018-04-14T05:44:09.781Z,99.90
2018-04-14T05:46:38.049Z,99.90
2018-04-14T05:49:07.114Z,99.90
2018-04-14T05:51:35.398Z,99.90
2018-04-14T05:54:03.717Z,99.90
2018-04-14T05:56:32.758Z,99.90
2018-04-14T05:59:01.058Z,99.90
2018-04-14T06:01:29.376Z,99.90
2018-04-14T06:03:59.185Z,99.90
2018-04-14T06:06:27.476Z,99.90
2018-04-14T06:08:56.595Z,99.90
2018-04-14T06:11:25.632Z,99.90
2018-04-14T06:13:53.945Z,99.90
2018-04-14T06:16:22.323Z,99.90
2018-04-14T06:18:50.610Z,99.90
2018-04-14T06:21:18.878Z,99.90
2018-04-14T06:23:47.972Z,99.90
2018-04-14T06:26:16.444Z,99.90
2018-04-14T06:28:44.827Z,99.90
2018-04-14T06:31:13.090Z,99.90
2018-04-14T06:33:41.391Z,99.90
2018-04-14T06:36:09.661Z,99.90
2018-04-14T06:38:37.996Z,99.90
2018-04-14T06:41:06.305Z,99.90
2018-04-14T06:43:34.588Z,99.90
2018-04-14T06:46:02.965Z,99.90
2018-04-14T06:48:31.242Z,99.90
2018-04-14T06:50:59.629Z,99.90
2018-04-14T06:53:28.005Z,99.90
2018-04-14T06:55:56.342Z,99.90
2018-04-14T06:58:24.599Z,99.90
2018-04-14T07:00:53.669Z,99.90
2018-04-14T07:03:21.949Z,99.90
2018-04-14T07:05:50.248Z,99.90
2018-04-14T07:08:19.304Z,99.90
2018-04-14T07:10:47.598Z,99.90
2018-04-14T07:13:16.676Z,99.90
2018-04-14T07:15:44.969Z,99.90
2018-04-14T07:18:13.226Z,99.90
2018-04-14T07:20:41.566Z,99.90
2018-04-14T07:23:10.604Z,99.90
2018-04-14T07:25:38.895Z,99.90
2018-04-14T07:28:07.163Z,99.90
2018-04-14T07:30:36.234Z,99.90
2018-04-14T07:33:04.507Z,99.90
2018-04-14T07:35:32.801Z,99.90
2018-04-14T07:38:01.091Z,99.90
2018-04-14T07:40:29.567Z,99.90
2018-04-14T07:42:57.847Z,99.90
2018-04-14T07:45:26.148Z,99.90
2018-04-14T07:47:54.414Z,99.90
2018-04-14T07:50:22.997Z,99.90
2018-04-14T07:52:51.267Z,99.90
2018-04-14T07:55:20.300Z,99.90
2018-04-14T07:57:49.377Z,99.90
2018-04-14T08:00:17.732Z,99.90
2018-04-14T08:02:46.025Z,99.90
2018-04-14T08:05:14.285Z,99.90
2018-04-14T08:07:42.671Z,99.90
2018-04-14T08:10:10.943Z,99.90
2018-04-14T08:12:39.316Z,99.90
2018-04-14T08:15:07.604Z,99.90
2018-04-14T08:17:35.885Z,99.90
2018-04-14T08:20:04.243Z,99.90
2018-04-14T08:22:32.556Z,99.90
2018-04-14T08:25:01.636Z,99.90
2018-04-14T08:27:30.111Z,99.90
2018-04-14T08:29:58.375Z,99.90
2018-04-14T08:32:26.667Z,99.90
2018-04-14T08:34:54.941Z,99.90
2018-04-14T08:37:23.257Z,99.90
2018-04-14T08:39:51.520Z,99.90
2018-04-14T08:42:20.178Z,99.90
2018-04-14T08:44:48.460Z,99.90
2018-04-14T08:47:16.761Z,99.90
2018-04-14T08:49:45.036Z,99.90
2018-04-14T08:52:13.312Z,99.90
2018-04-14T08:54:41.611Z,99.90
2018-04-14T08:57:10.665Z,99.90
2018-04-14T08:59:38.964Z,99.90
2018-04-14T09:02:07.245Z,99.90
2018-04-14T09:04:35.599Z,99.90
2018-04-14T09:07:03.866Z,99.90
2018-04-14T09:09:32.273Z,99.90
2018-04-14T09:12:00.641Z,99.90
2018-04-14T09:14:28.939Z,99.90
2018-04-14T09:16:57.282Z,99.90
2018-04-14T09:19:25.693Z,99.90
2018-04-14T09:21:53.963Z,99.90
2018-04-14T09:24:22.331Z,99.90
2018-04-14T09:26:50.602Z,99.90
2018-04-14T09:29:19.052Z,99.90
2018-04-14T09:31:47.319Z,99.90
2018-04-14T09:34:15.680Z,99.90
2018-04-14T09:36:44.708Z,99.90
2018-04-14T09:39:12.987Z,99.90
2018-04-14T09:41:41.290Z,99.90
2018-04-14T09:44:09.542Z,99.90
2018-04-14T09:46:37.842Z,99.90
2018-04-14T09:49:06.126Z,99.90
2018-04-14T09:51:34.430Z,99.90
2018-04-14T09:54:02.698Z,99.90
2018-04-14T09:56:31.012Z,99.90
2018-04-14T09:58:59.288Z,99.90
2018-04-14T10:01:27.593Z,99.90
2018-04-14T10:03:58.443Z,99.90
2018-04-14T10:06:26.741Z,99.90
2018-04-14T10:08:56.541Z,99.90
2018-04-14T10:11:24.823Z,99.90
2018-04-14T10:13:53.098Z,99.90
2018-04-14T10:16:21.473Z,99.90
2018-04-14T10:18:49.759Z,99.90
2018-04-14T10:21:18.845Z,99.90
2018-04-14T10:23:47.122Z,99.90
2018-04-14T10:26:15.414Z,99.90
2018-04-14T10:28:43.773Z,99.90
2018-04-14T10:31:12.161Z,99.90
2018-04-14T10:33:40.549Z,99.90
2018-04-14T10:36:08.918Z,99.90
2018-04-14T10:38:37.203Z,99.90
2018-04-14T10:41:06.262Z,99.90
2018-04-14T10:43:34.751Z,99.90
2018-04-14T10:46:03.013Z,99.90
2018-04-14T10:48:31.303Z,99.90
2018-04-14T10:50:59.572Z,99.90
2018-04-14T10:53:27.859Z,99.90
2018-04-14T10:55:56.237Z,99.90
2018-04-14T10:58:24.609Z,99.90
2018-04-14T11:00:52.882Z,99.90
2018-04-14T11:03:21.188Z,99.90
2018-04-14T11:05:49.456Z,99.90
2018-04-14T11:08:17.759Z,99.90
2018-04-14T11:10:46.807Z,99.90
2018-04-14T11:13:15.101Z,99.90
2018-04-14T11:15:43.471Z,99.90
2018-04-14T11:18:11.856Z,99.90
2018-04-14T11:20:40.105Z,99.90
2018-04-14T11:23:08.410Z,99.90
2018-04-14T11:25:36.792Z,99.90
2018-04-14T11:28:05.080Z,99.90
2018-04-14T11:30:33.446Z,99.90
2018-04-14T11:33:01.934Z,99.90
2018-04-14T11:35:30.219Z,99.90
2018-04-14T11:37:58.465Z,99.90
2018-04-14T11:40:26.868Z,99.90
2018-04-14T11:42:55.241Z,99.90
2018-04-14T11:45:23.563Z,99.90
2018-04-14T11:47:51.843Z,99.90
2018-04-14T11:50:20.150Z,99.90
2018-04-14T11:52:48.425Z,99.90
2018-04-14T11:55:16.830Z,99.90
2018-04-14T11:57:45.100Z,99.90
2018-04-14T12:00:13.417Z,99.90
2018-04-14T12:02:41.675Z,99.90
2018-04-14T12:05:10.038Z,99.90
2018-04-14T12:07:38.422Z,99.90
2018-04-14T12:10:06.707Z,99.90
2018-04-14T12:12:34.970Z,99.90
2018-04-14T12:15:03.328Z,99.90
2018-04-14T12:17:31.642Z,99.90
2018-04-14T12:20:00.008Z,99.90
2018-04-14T12:22:28.280Z,99.90
2018-04-14T12:24:56.599Z,99.90
2018-04-14T12:27:25.662Z,99.90
2018-04-14T12:29:53.978Z,99.90
2018-04-14T12:32:23.047Z,99.90
2018-04-14T12:34:52.137Z,99.90
2018-04-14T12:37:20.430Z,99.90
2018-04-14T12:39:48.703Z,99.90
2018-04-14T12:42:17.004Z,99.90
2018-04-14T12:44:46.042Z,99.90
2018-04-14T12:47:14.342Z,99.90
2018-04-14T12:49:42.631Z,99.90
2018-04-14T12:52:11.095Z,99.90
2018-04-14T12:54:39.358Z,99.90
2018-04-14T12:57:07.665Z,99.90
2018-04-14T12:59:35.943Z,99.90
2018-04-14T13:02:04.267Z,99.90
2018-04-14T13:04:32.527Z,99.90
2018-04-14T13:07:01.678Z,99.90
2018-04-14T13:09:29.964Z,99.90
2018-04-14T13:11:58.265Z,99.90
2018-04-14T13:14:27.351Z,99.90
2018-04-14T13:16:55.619Z,99.90
2018-04-14T13:19:23.999Z,99.90
2018-04-14T13:21:52.372Z,99.90
2018-04-14T13:24:20.751Z,99.90
2018-04-14T13:26:49.041Z,99.90
2018-04-14T13:29:17.310Z,99.90
2018-04-14T13:31:45.678Z,99.90
2018-04-14T13:34:13.956Z,99.90
2018-04-14T13:36:42.259Z,99.90
2018-04-14T13:39:11.294Z,99.90
2018-04-14T13:41:39.589Z,99.90
2018-04-14T13:44:07.867Z,99.90
2018-04-14T13:46:36.134Z,99.90
2018-04-14T13:49:04.559Z,99.90
2018-04-14T13:51:32.823Z,99.90
2018-04-14T13:54:01.118Z,99.90
2018-04-14T13:56:30.162Z,99.90
2018-04-14T13:58:58.462Z,99.90
2018-04-14T14:01:26.722Z,99.90
2018-04-14T14:03:55.021Z,99.90
2018-04-14T14:06:23.299Z,99.60
2018-04-14T14:08:51.599Z,98.30
2018-04-14T14:11:19.867Z,97.20
2018-04-14T14:13:48.939Z,93.10
2018-04-14T14:16:17.212Z,93.00
2018-04-14T14:18:45.508Z,91.60
2018-04-14T14:21:13.884Z,90.10
2018-04-14T14:23:42.174Z,88.10
2018-04-14T14:26:11.963Z,82.20
2018-04-14T14:28:40.254Z,82.30
2018-04-14T14:31:09.034Z,80.90
2018-04-14T14:33:38.116Z,78.30
2018-04-14T14:36:06.441Z,78.40
2018-04-14T14:38:34.800Z,79.20
2018-04-14T14:41:03.075Z,77.00
2018-04-14T14:43:31.370Z,81.60
2018-04-14T14:45:59.960Z,76.80
2018-04-14T14:48:28.319Z,77.40
2018-04-14T14:50:56.584Z,80.90
2018-04-14T14:53:24.861Z,88.50
2018-04-14T14:55:53.160Z,91.40
2018-04-14T14:58:21.423Z,92.70
2018-04-14T15:00:49.719Z,95.10
2018-04-14T15:03:18.004Z,97.90
2018-04-14T15:05:46.350Z,99.60
2018-04-14T15:08:14.623Z,99.90
2018-04-14T15:10:43.025Z,99.90
2018-04-14T15:13:11.499Z,99.90
2018-04-14T15:15:39.814Z,99.90
2018-04-14T15:18:08.848Z,99.50
2018-04-14T15:20:37.176Z,99.50
2018-04-14T15:23:06.197Z,94.10
2018-04-14T15:25:34.556Z,94.00
2018-04-14T15:28:03.590Z,91.30
2018-04-14T15:30:31.889Z,90.90
2018-04-14T15:33:00.214Z,91.60
2018-04-14T15:35:28.628Z,89.40
2018-04-14T15:37:56.937Z,89.00
2018-04-14T15:40:25.255Z,87.00
2018-04-14T15:42:53.557Z,88.20
2018-04-14T15:45:21.967Z,90.00
2018-04-14T15:47:50.357Z,90.70
2018-04-14T15:50:18.782Z,92.20
2018-04-14T15:52:47.212Z,95.30
2018-04-14T15:55:15.604Z,94.60
2018-04-14T15:57:43.952Z,94.50
2018-04-14T16:00:12.285Z,94.50
2018-04-14T16:02:41.538Z,94.40
2018-04-14T16:05:10.337Z,94.30
2018-04-14T16:07:39.459Z,95.10
2018-04-14T16:10:08.537Z,96.70
2018-04-14T16:12:36.904Z,96.70
2018-04-14T16:15:05.155Z,96.90
2018-04-14T16:17:33.557Z,95.70
2018-04-14T16:20:02.783Z,96.00
2018-04-14T16:22:31.089Z,97.30
2018-04-14T16:24:59.359Z,98.70
2018-04-14T16:27:27.660Z,97.10
2018-04-14T16:29:55.935Z,97.60
2018-04-14T16:32:24.251Z,97.30
2018-04-14T16:34:52.532Z,97.50
2018-04-14T16:37:20.902Z,96.90
2018-04-14T16:39:49.156Z,94.90
2018-04-14T16:42:17.427Z,94.30
2018-04-14T16:44:45.735Z,95.60
2018-04-14T16:47:14.066Z,94.10
2018-04-14T16:49:42.361Z,93.90
2018-04-14T16:52:10.621Z,92.60
2018-04-14T16:54:38.927Z,93.30
2018-04-14T16:57:07.210Z,95.50
2018-04-14T16:59:36.270Z,94.90
2018-04-14T17:02:04.541Z,94.20
2018-04-14T17:04:32.880Z,94.40
2018-04-14T17:07:01.154Z,94.40
2018-04-14T17:09:30.962Z,94.20
2018-04-14T17:11:59.243Z,94.20
2018-04-14T17:14:27.546Z,95.70
2018-04-14T17:16:56.595Z,98.40
2018-04-14T17:19:24.890Z,98.40
2018-04-14T17:21:53.155Z,98.80
2018-04-14T17:24:21.453Z,99.70
2018-04-14T17:26:49.725Z,98.70
2018-04-14T17:29:18.016Z,99.10
2018-04-14T17:31:47.100Z,99.90
2018-04-14T17:34:15.475Z,99.90
2018-04-14T17:36:43.727Z,99.90
2018-04-14T17:39:12.047Z,99.90
2018-04-14T17:41:40.412Z,99.90
2018-04-14T17:44:08.686Z,99.90
2018-04-14T17:46:36.978Z,99.90
2018-04-14T17:49:05.234Z,99.90
2018-04-14T17:51:33.570Z,99.90
2018-04-14T17:54:01.847Z,99.90
2018-04-14T17:56:30.150Z,99.90
2018-04-14T17:58:58.418Z,99.90
2018-04-14T18:01:26.714Z,99.90
2018-04-14T18:03:55.028Z,99.90
2018-04-14T18:06:23.336Z,99.90
2018-04-14T18:08:51.627Z,99.90
2018-04-14T18:11:19.927Z,99.90
2018-04-14T18:13:48.224Z,99.90
2018-04-14T18:16:16.519Z,99.90
2018-04-14T18:18:45.575Z,99.90
2018-04-14T18:21:13.999Z,99.90
2018-04-14T18:23:42.273Z,99.90
2018-04-14T18:26:10.547Z,99.90
2018-04-14T18:28:39.333Z,99.90
2018-04-14T18:31:07.611Z,99.90
2018-04-14T18:33:35.928Z,99.90
2018-04-14T18:36:04.189Z,99.90
2018-04-14T18:38:33.311Z,99.90
2018-04-14T18:41:02.318Z,99.90
2018-04-14T18:43:31.256Z,99.90
2018-04-14T18:45:59.894Z,99.90
2018-04-14T18:48:28.453Z,99.90
2018-04-14T18:50:56.752Z,99.90
2018-04-14T18:53:25.034Z,99.90
2018-04-14T18:55:53.298Z,99.90
2018-04-14T18:58:21.619Z,99.90
2018-04-14T19:00:49.886Z,99.90
2018-04-14T19:03:18.191Z,99.90
2018-04-14T19:05:46.468Z,99.90
2018-04-14T19:08:14.828Z,99.90
2018-04-14T19:10:44.002Z,99.90
2018-04-14T19:13:12.415Z,99.90
2018-04-14T19:15:41.294Z,99.90
2018-04-14T19:18:09.683Z,99.90
2018-04-14T19:20:37.959Z,99.90
2018-04-14T19:23:06.310Z,99.90
2018-04-14T19:25:34.591Z,99.90
2018-04-14T19:28:02.907Z,99.90
2018-04-14T19:30:31.165Z,99.90
2018-04-14T19:32:59.543Z,99.90
2018-04-14T19:35:27.822Z,99.90
2018-04-14T19:37:56.151Z,99.90
2018-04-14T19:40:25.175Z,99.90
2018-04-14T19:42:53.483Z,99.90
2018-04-14T19:45:21.790Z,99.90
2018-04-14T19:47:50.064Z,99.90
2018-04-14T19:50:19.231Z,99.90
2018-04-14T19:52:47.507Z,99.90
2018-04-14T19:55:15.843Z,99.90
2018-04-14T19:57:44.107Z,99.90
2018-04-14T20:00:12.416Z,99.90
2018-04-14T20:02:40.694Z,99.90
2018-04-14T20:05:08.992Z,99.90
2018-04-14T20:07:37.267Z,99.90
2018-04-14T20:10:05.566Z,99.90
2018-04-14T20:12:34.606Z,99.90
2018-04-14T20:15:03.672Z,99.90
2018-04-14T20:17:32.707Z,99.90
2018-04-14T20:20:01.006Z,99.90
2018-04-14T20:22:29.300Z,99.90
2018-04-14T20:24:57.593Z,99.90
2018-04-14T20:27:26.630Z,99.90
2018-04-14T20:29:55.250Z,99.90
2018-04-14T20:32:23.517Z,99.90
2018-04-14T20:34:51.906Z,99.90
2018-04-14T20:37:20.193Z,99.90
2018-04-14T20:39:48.467Z,99.90
2018-04-14T20:42:16.777Z,99.90
2018-04-14T20:44:45.058Z,99.90
2018-04-14T20:47:13.371Z,99.90
2018-04-14T20:49:41.643Z,99.90
2018-04-14T20:52:09.962Z,99.90
2018-04-14T20:54:38.240Z,99.90
2018-04-14T20:57:07.521Z,99.90
2018-04-14T20:59:35.799Z,99.90
2018-04-14T21:02:04.099Z,99.90
2018-04-14T21:04:33.146Z,99.90
2018-04-14T21:07:01.436Z,99.90
2018-04-14T21:09:29.713Z,99.90
2018-04-14T21:11:58.034Z,99.90
2018-04-14T21:14:27.090Z,99.90
2018-04-14T21:16:55.471Z,99.90
2018-04-14T21:19:23.850Z,99.90
2018-04-14T21:21:52.151Z,99.90
2018-04-14T21:24:20.425Z,99.90
2018-04-14T21:26:48.832Z,99.90
2018-04-14T21:29:17.079Z,99.90
2018-04-14T21:31:45.474Z,99.90
2018-04-14T21:34:13.747Z,99.90
2018-04-14T21:36:42.818Z,99.90
2018-04-14T21:39:11.194Z,99.90
2018-04-14T21:41:39.454Z,99.90
2018-04-14T21:44:07.755Z,99.90
2018-04-14T21:46:36.031Z,99.90
2018-04-14T21:49:04.338Z,99.90
2018-04-14T21:51:33.391Z,99.90
2018-04-14T21:54:01.700Z,99.90
2018-04-14T21:56:29.958Z,99.90
2018-04-14T21:58:58.265Z,99.90
2018-04-14T22:01:27.314Z,99.90
2018-04-14T22:03:55.644Z,99.90
2018-04-14T22:06:24.681Z,99.90
2018-04-14T22:08:53.085Z,99.90
2018-04-14T22:11:21.338Z,99.90
2018-04-14T22:13:49.643Z,99.90
2018-04-14T22:16:17.906Z,99.90
2018-04-14T22:18:46.211Z,99.90
2018-04-14T22:21:14.686Z,99.90
2018-04-14T22:23:43.270Z,99.90
2018-04-14T22:26:13.056Z,99.90
2018-04-14T22:28:41.452Z,99.90
2018-04-14T22:31:09.835Z,99.90
2018-04-14T22:33:38.132Z,99.90
2018-04-14T22:36:06.488Z,99.90
2018-04-14T22:38:34.795Z,99.90
2018-04-14T22:41:03.963Z,99.90
2018-04-14T22:43:32.230Z,99.90
2018-04-14T22:46:00.644Z,99.90
2018-04-14T22:48:29.002Z,99.90
2018-04-14T22:50:57.282Z,99.90
2018-04-14T22:53:25.554Z,99.90
2018-04-14T22:55:53.929Z,99.90
2018-04-14T22:58:22.203Z,99.90
2018-04-14T23:00:50.585Z,99.90
2018-04-14T23:03:18.845Z,99.90
2018-04-14T23:05:47.963Z,99.90
2018-04-14T23:08:16.244Z,99.90
2018-04-14T23:10:44.545Z,99.90
2018-04-14T23:13:12.827Z,99.90
2018-04-14T23:15:41.992Z,99.90
2018-04-14T23:18:10.271Z,99.90
2018-04-14T23:20:38.566Z,99.90
2018-04-14T23:23:07.611Z,99.90
2018-04-14T23:25:35.921Z,99.90
2018-04-14T23:28:04.200Z,99.90
2018-04-14T23:30:32.503Z,99.90
2018-04-14T23:33:01.548Z,99.90
2018-04-14T23:35:29.865Z,99.90
2018-04-14T23:37:58.133Z,99.90
2018-04-14T23:40:26.445Z,99.90
2018-04-14T23:42:55.488Z,99.90
2018-04-14T23:45:23.774Z,99.90
2018-04-14T23:47:52.843Z,99.90
2018-04-14T23:50:21.121Z,99.90
2018-04-14T23:52:49.410Z,99.90
2018-04-14T23:55:17.701Z,99.90
2018-04-14T23:57:46.088Z,99.90
